Time;durP1;ratioP1;P1;durP2;ratioP2;P2;SDS_P1;SDS_P2;PMS_P1;PMS_P2;Temp;Humidity;BMP_temperature;BMP_pressure;BME280_temperature;BME280_humidity;BME280_pressure;Samples;Min_cycle;Max_cycle;Signal;HPM_P1;HPM_P2
2021/04/27 00:01:33;;;;;;;0.20;0.20;;;;;;;;;;5128350;27;20202;-67
2021/04/27 00:03:59;;;;;;;0.20;0.20;;;;;;;;;;5132836;27;20229;-67
2021/04/27 00:06:25;;;;;;;0.20;0.20;;;;;;;;;;5131042;27;20225;-69
2021/04/27 00:08:51;;;;;;;0.20;0.20;;;;;;;;;;5138918;27;20301;-67
2021/04/27 00:11:18;;;;;;;0.20;0.20;;;;;;;;;;5124333;28;20413;-68
2021/04/27 00:13:44;;;;;;;0.20;0.20;;;;;;;;;;5124357;28;20210;-68
2021/04/27 00:16:09;;;;;;;0.20;0.20;;;;;;;;;;5123845;27;20222;-68
2021/04/27 00:18:35;;;;;;;0.20;0.20;;;;;;;;;;5139274;27;20264;-68
2021/04/27 00:21:01;;;;;;;0.20;0.20;;;;;;;;;;5144799;27;20204;-68
2021/04/27 00:23:27;;;;;;;0.20;0.20;;;;;;;;;;5144535;27;20266;-69
2021/04/27 00:25:54;;;;;;;0.20;0.20;;;;;;;;;;5144686;27;20229;-68
2021/04/27 00:28:19;;;;;;;0.20;0.20;;;;;;;;;;5144806;27;20417;-68
2021/04/27 00:30:45;;;;;;;0.20;0.20;;;;;;;;;;5130576;27;20196;-68
2021/04/27 00:33:11;;;;;;;0.20;0.20;;;;;;;;;;5132401;27;20577;-68
2021/04/27 00:35:37;;;;;;;0.20;0.20;;;;;;;;;;5127832;27;20413;-68
2021/04/27 00:38:03;;;;;;;0.20;0.20;;;;;;;;;;5134318;27;20233;-68
2021/04/27 00:40:31;;;;;;;0.20;0.20;;;;;;;;;;5139876;27;20208;-67
2021/04/27 00:42:58;;;;;;;0.20;0.20;;;;;;;;;;5144718;27;20202;-68
2021/04/27 00:45:25;;;;;;;0.20;0.20;;;;;;;;;;5144255;27;20197;-68
2021/04/27 00:47:52;;;;;;;0.20;0.20;;;;;;;;;;5144601;27;20223;-68
2021/04/27 00:50:19;;;;;;;0.20;0.20;;;;;;;;;;5144439;27;20488;-69
2021/04/27 00:52:46;;;;;;;0.20;0.20;;;;;;;;;;5144064;27;20193;-68
2021/04/27 00:55:12;;;;;;;0.20;0.20;;;;;;;;;;5133518;28;20284;-69
2021/04/27 00:57:38;;;;;;;0.20;0.20;;;;;;;;;;5140664;28;20213;-68
2021/04/27 01:00:07;;;;;;;0.20;0.20;;;;;;;;;;5134532;28;20233;-68
2021/04/27 01:02:33;;;;;;;0.20;0.20;;;;;;;;;;5144229;28;20376;-68
2021/04/27 01:04:59;;;;;;;0.20;0.20;;;;;;;;;;5144478;28;20441;-68
2021/04/27 01:07:28;;;;;;;0.20;0.20;;;;;;;;;;5144469;28;20484;-68
2021/04/27 01:09:59;;;;;;;0.20;0.20;;;;;;;;;;5144296;28;20213;-68
2021/04/27 01:12:27;;;;;;;0.20;0.20;;;;;;;;;;5143967;28;20204;-68
2021/04/27 01:14:56;;;;;;;0.20;0.20;;;;;;;;;;5143806;28;20295;-68
2021/04/27 01:17:24;;;;;;;0.20;0.20;;;;;;;;;;5144060;28;20201;-69
2021/04/27 01:19:52;;;;;;;0.20;0.20;;;;;;;;;;5143905;28;20268;-69
2021/04/27 01:22:20;;;;;;;0.20;0.20;;;;;;;;;;5144213;28;20233;-69
2021/04/27 01:24:50;;;;;;;0.20;0.20;;;;;;;;;;5128271;28;20205;-67
2021/04/27 01:27:17;;;;;;;0.20;0.20;;;;;;;;;;5131769;28;20496;-68
2021/04/27 01:29:43;;;;;;;0.20;0.20;;;;;;;;;;5141507;28;20485;-68
2021/04/27 01:32:09;;;;;;;0.20;0.20;;;;;;;;;;5137344;27;20276;-68
2021/04/27 01:34:35;;;;;;;0.20;0.20;;;;;;;;;;5139673;27;20221;-68
2021/04/27 01:37:03;;;;;;;0.20;0.20;;;;;;;;;;5145237;27;20201;-68
2021/04/27 01:39:29;;;;;;;0.20;0.20;;;;;;;;;;5127471;28;20220;-68
2021/04/27 01:41:55;;;;;;;0.20;0.20;;;;;;;;;;5129170;28;20205;-68
2021/04/27 01:44:22;;;;;;;0.20;0.20;;;;;;;;;;5130969;28;20197;-71
2021/04/27 01:46:48;;;;;;;0.20;0.20;;;;;;;;;;5138471;28;20201;-68
2021/04/27 01:49:15;;;;;;;0.20;0.20;;;;;;;;;;5143826;27;20475;-67
2021/04/27 01:51:41;;;;;;;0.20;0.20;;;;;;;;;;5141350;27;20212;-67
2021/04/27 01:54:07;;;;;;;0.20;0.20;;;;;;;;;;5146505;27;20201;-68
2021/04/27 01:56:32;;;;;;;0.20;0.20;;;;;;;;;;5147462;27;20237;-67
2021/04/27 01:58:58;;;;;;;0.20;0.20;;;;;;;;;;5147619;27;20201;-67
2021/04/27 02:01:25;;;;;;;0.20;0.20;;;;;;;;;;5137779;27;20323;-68
2021/04/27 02:03:51;;;;;;;0.20;0.20;;;;;;;;;;5141803;27;20421;-67
2021/04/27 02:06:16;;;;;;;0.20;0.20;;;;;;;;;;5133499;27;20205;-67
2021/04/27 02:08:46;;;;;;;0.20;0.20;;;;;;;;;;5132693;27;20218;-67
2021/04/27 02:11:12;;;;;;;0.20;0.20;;;;;;;;;;5145164;27;20213;-68
2021/04/27 02:13:38;;;;;;;0.20;0.20;;;;;;;;;;5146090;27;20477;-68
2021/04/27 02:16:04;;;;;;;0.20;0.20;;;;;;;;;;5143473;27;20221;-69
2021/04/27 02:18:33;;;;;;;0.20;0.20;;;;;;;;;;5137355;27;20216;-67
2021/04/27 02:21:00;;;;;;;0.20;0.20;;;;;;;;;;5145737;27;20220;-67
2021/04/27 02:23:27;;;;;;;0.20;0.20;;;;;;;;;;5145631;27;20266;-67
2021/04/27 02:25:53;;;;;;;0.20;0.20;;;;;;;;;;5145897;27;20194;-67
2021/04/27 02:28:19;;;;;;;0.20;0.20;;;;;;;;;;5135262;27;20381;-67
2021/04/27 02:30:45;;;;;;;0.20;0.20;;;;;;;;;;5131371;27;20243;-67
2021/04/27 02:33:11;;;;;;;0.20;0.20;;;;;;;;;;5142114;27;20201;-68
2021/04/27 02:35:37;;;;;;;0.20;0.20;;;;;;;;;;5147957;27;20227;-67
2021/04/27 02:38:03;;;;;;;0.20;0.20;;;;;;;;;;5153234;27;20209;-67
2021/04/27 02:40:29;;;;;;;0.20;0.20;;;;;;;;;;5143716;27;20220;-67
2021/04/27 02:42:56;;;;;;;0.20;0.20;;;;;;;;;;5150485;27;20208;-67
2021/04/27 02:45:30;;;;;;;0.20;0.20;;;;;;;;;;5143291;27;20201;-68
2021/04/27 02:48:03;;;;;;;0.20;0.20;;;;;;;;;;5138675;27;20459;-67
2021/04/27 02:50:29;;;;;;;0.20;0.20;;;;;;;;;;5149504;27;20253;-67
2021/04/27 02:52:56;;;;;;;0.20;0.20;;;;;;;;;;5140675;27;20225;-67
2021/04/27 02:55:22;;;;;;;0.20;0.20;;;;;;;;;;5138846;27;20270;-67
2021/04/27 02:57:47;;;;;;;0.20;0.20;;;;;;;;;;5135221;27;20507;-67
2021/04/27 03:00:14;;;;;;;0.20;0.20;;;;;;;;;;5136866;27;20197;-67
2021/04/27 03:02:39;;;;;;;0.20;0.20;;;;;;;;;;5138683;27;20490;-67
2021/04/27 03:05:06;;;;;;;0.20;0.20;;;;;;;;;;5139383;27;20194;-69
2021/04/27 03:07:31;;;;;;;0.20;0.20;;;;;;;;;;5143889;27;20197;-67
2021/04/27 03:09:58;;;;;;;0.20;0.20;;;;;;;;;;5143986;27;20197;-67
2021/04/27 03:12:24;;;;;;;0.20;0.20;;;;;;;;;;5138710;27;20415;-67
2021/04/27 03:14:49;;;;;;;0.20;0.20;;;;;;;;;;5142494;27;20229;-67
2021/04/27 03:17:15;;;;;;;0.20;0.20;;;;;;;;;;5139481;27;20222;-67
2021/04/27 03:19:41;;;;;;;0.20;0.20;;;;;;;;;;5140010;27;20234;-68
2021/04/27 03:22:07;;;;;;;0.20;0.20;;;;;;;;;;5139786;27;20236;-67
2021/04/27 03:24:32;;;;;;;0.20;0.20;;;;;;;;;;5145151;27;20198;-67
2021/04/27 03:26:59;;;;;;;0.20;0.20;;;;;;;;;;5137259;27;20213;-67
2021/04/27 03:29:25;;;;;;;0.20;0.20;;;;;;;;;;5129966;27;20227;-67
2021/04/27 03:31:50;;;;;;;0.20;0.20;;;;;;;;;;5135494;27;20202;-67
2021/04/27 03:34:16;;;;;;;0.20;0.20;;;;;;;;;;5142859;27;20204;-67
2021/04/27 03:36:42;;;;;;;0.20;0.20;;;;;;;;;;5142205;27;20197;-67
2021/04/27 03:39:08;;;;;;;0.20;0.20;;;;;;;;;;5144660;27;20201;-67
2021/04/27 03:41:33;;;;;;;0.20;0.20;;;;;;;;;;5144488;27;20242;-67
2021/04/27 03:44:00;;;;;;;0.20;0.20;;;;;;;;;;5144943;27;20246;-66
2021/04/27 03:46:26;;;;;;;0.20;0.20;;;;;;;;;;5150325;27;20208;-66
2021/04/27 03:48:51;;;;;;;0.20;0.20;;;;;;;;;;5145112;27;20197;-68
2021/04/27 03:51:17;;;;;;;0.20;0.20;;;;;;;;;;5141428;27;20205;-69
2021/04/27 03:53:43;;;;;;;0.20;0.20;;;;;;;;;;5137683;27;20197;-67
2021/04/27 03:56:08;;;;;;;0.20;0.20;;;;;;;;;;5138457;27;20221;-67
2021/04/27 03:58:34;;;;;;;0.20;0.20;;;;;;;;;;5144936;27;20200;-68
2021/04/27 04:01:01;;;;;;;0.20;0.20;;;;;;;;;;5142712;27;20217;-68
2021/04/27 04:03:27;;;;;;;0.20;0.20;;;;;;;;;;5140114;27;20201;-66
2021/04/27 04:05:53;;;;;;;0.20;0.20;;;;;;;;;;5141367;27;20197;-67
2021/04/27 04:08:18;;;;;;;0.20;0.20;;;;;;;;;;5134189;27;20212;-66
2021/04/27 04:10:44;;;;;;;0.20;0.20;;;;;;;;;;5136098;27;20202;-66
2021/04/27 04:13:10;;;;;;;0.20;0.20;;;;;;;;;;5140843;27;20251;-67
2021/04/27 04:15:36;;;;;;;0.20;0.20;;;;;;;;;;5140195;27;20220;-67
2021/04/27 04:18:02;;;;;;;0.20;0.20;;;;;;;;;;5143147;27;20235;-67
2021/04/27 04:20:28;;;;;;;0.30;0.30;;;;;;;;;;5140718;27;20208;-67
2021/04/27 04:22:55;;;;;;;0.20;0.20;;;;;;;;;;5140019;27;20488;-68
2021/04/27 04:25:21;;;;;;;0.20;0.20;;;;;;;;;;5138415;27;20205;-68
2021/04/27 04:27:47;;;;;;;0.20;0.20;;;;;;;;;;5138933;27;20202;-67
2021/04/27 04:30:14;;;;;;;0.20;0.20;;;;;;;;;;5130961;27;20202;-68
2021/04/27 04:32:40;;;;;;;0.20;0.20;;;;;;;;;;5135314;27;20201;-68
2021/04/27 04:35:08;;;;;;;0.20;0.20;;;;;;;;;;5142456;27;20217;-68
2021/04/27 04:37:34;;;;;;;0.20;0.20;;;;;;;;;;5133760;27;20224;-67
2021/04/27 04:40:00;;;;;;;3.17;3.07;;;;;;;;;;5140853;27;20476;-68
2021/04/27 04:42:25;;;;;;;0.20;0.20;;;;;;;;;;5142134;27;20204;-67
2021/04/27 04:44:51;;;;;;;1.43;1.43;;;;;;;;;;5142050;27;20531;-67
2021/04/27 04:47:17;;;;;;;0.20;0.20;;;;;;;;;;5144165;27;20318;-70
2021/04/27 04:49:43;;;;;;;0.20;0.20;;;;;;;;;;5144100;27;20232;-69
2021/04/27 04:52:10;;;;;;;0.20;0.20;;;;;;;;;;5141928;27;20201;-69
2021/04/27 04:54:36;;;;;;;0.20;0.20;;;;;;;;;;5139366;27;20201;-69
2021/04/27 04:57:02;;;;;;;0.20;0.20;;;;;;;;;;5135622;28;20220;-68
2021/04/27 04:59:27;;;;;;;4.13;3.83;;;;;;;;;;5140562;28;20295;-70
2021/04/27 05:01:53;;;;;;;0.20;0.20;;;;;;;;;;5147492;27;20197;-68
2021/04/27 05:04:19;;;;;;;0.20;0.20;;;;;;;;;;5139394;28;20197;-68
2021/04/27 05:06:45;;;;;;;0.20;0.20;;;;;;;;;;5138980;28;20364;-68
2021/04/27 05:09:13;;;;;;;0.20;0.20;;;;;;;;;;5139302;28;20202;-68
2021/04/27 05:11:38;;;;;;;0.20;0.20;;;;;;;;;;5132287;28;20220;-68
2021/04/27 05:14:04;;;;;;;0.20;0.20;;;;;;;;;;5134386;27;20346;-68
2021/04/27 05:16:30;;;;;;;0.20;0.20;;;;;;;;;;5144199;28;20213;-67
2021/04/27 05:18:57;;;;;;;0.20;0.20;;;;;;;;;;5139217;28;20229;-69
2021/04/27 05:21:23;;;;;;;0.20;0.20;;;;;;;;;;5149450;27;20204;-67
2021/04/27 05:23:49;;;;;;;0.20;0.20;;;;;;;;;;5150022;27;20221;-67
2021/04/27 05:26:15;;;;;;;0.20;0.20;;;;;;;;;;5143765;27;20201;-66
2021/04/27 05:28:42;;;;;;;0.20;0.20;;;;;;;;;;5136129;27;20201;-67
2021/04/27 05:31:07;;;;;;;0.20;0.20;;;;;;;;;;5139410;27;20490;-68
2021/04/27 05:33:33;;;;;;;0.20;0.20;;;;;;;;;;5143280;27;20201;-67
2021/04/27 05:35:59;;;;;;;0.47;0.47;;;;;;;;;;5144200;27;20237;-67
2021/04/27 05:38:25;;;;;;;0.20;0.20;;;;;;;;;;5143277;27;20265;-69
2021/04/27 05:40:51;;;;;;;0.20;0.20;;;;;;;;;;5160635;27;20223;-68
2021/04/27 05:43:17;;;;;;;0.20;0.20;;;;;;;;;;5142245;27;20265;-68
2021/04/27 05:45:44;;;;;;;0.20;0.20;;;;;;;;;;5147356;27;20238;-66
2021/04/27 05:48:10;;;;;;;0.20;0.20;;;;;;;;;;5147841;27;20204;-67
2021/04/27 05:50:36;;;;;;;0.20;0.20;;;;;;;;;;5148882;27;20387;-67
2021/04/27 05:53:01;;;;;;;0.20;0.20;;;;;;;;;;5134946;27;20197;-67
2021/04/27 05:55:27;;;;;;;0.20;0.20;;;;;;;;;;5141565;27;20354;-68
2021/04/27 05:57:53;;;;;;;0.20;0.20;;;;;;;;;;5138742;27;20386;-68
2021/04/27 06:00:20;;;;;;;0.20;0.20;;;;;;;;;;5152471;27;20224;-67
2021/04/27 06:02:46;;;;;;;0.20;0.20;;;;;;;;;;5132369;27;20203;-67
2021/04/27 06:05:12;;;;;;;0.20;0.20;;;;;;;;;;5141333;27;20202;-68
2021/04/27 06:07:38;;;;;;;0.23;0.23;;;;;;;;;;5145370;27;20382;-68
2021/04/27 06:10:04;;;;;;;0.20;0.20;;;;;;;;;;5146127;27;20245;-67
2021/04/27 06:12:30;;;;;;;0.20;0.20;;;;;;;;;;5143234;27;20199;-69
2021/04/27 06:14:56;;;;;;;0.20;0.20;;;;;;;;;;5142700;27;20225;-67
2021/04/27 06:17:23;;;;;;;0.20;0.20;;;;;;;;;;5145688;27;20224;-69
2021/04/27 06:19:49;;;;;;;0.20;0.20;;;;;;;;;;5142767;27;20201;-67
2021/04/27 06:22:14;;;;;;;0.20;0.20;;;;;;;;;;5136051;27;20481;-68
2021/04/27 06:24:40;;;;;;;0.20;0.20;;;;;;;;;;5146889;27;20205;-69
2021/04/27 06:27:06;;;;;;;0.20;0.20;;;;;;;;;;5143408;27;20205;-70
2021/04/27 06:29:31;;;;;;;0.20;0.20;;;;;;;;;;5144843;27;20205;-68
2021/04/27 06:31:57;;;;;;;0.20;0.20;;;;;;;;;;5146333;27;20205;-70
2021/04/27 06:34:24;;;;;;;0.20;0.20;;;;;;;;;;5143984;27;20194;-69
2021/04/27 06:36:50;;;;;;;0.20;0.20;;;;;;;;;;5141912;27;20224;-70
2021/04/27 06:39:16;;;;;;;0.20;0.20;;;;;;;;;;5144355;27;20361;-68
2021/04/27 06:41:41;;;;;;;0.20;0.20;;;;;;;;;;5145122;27;20210;-68
2021/04/27 06:44:07;;;;;;;0.20;0.20;;;;;;;;;;5145909;27;20202;-68
2021/04/27 06:46:34;;;;;;;0.20;0.20;;;;;;;;;;5144962;27;20245;-68
2021/04/27 06:49:00;;;;;;;0.10;0.10;;;;;;;;;;5145603;27;20202;-68
2021/04/27 06:51:27;;;;;;;0.10;0.10;;;;;;;;;;5145900;27;20273;-67
2021/04/27 06:53:53;;;;;;;0.20;0.20;;;;;;;;;;5144472;27;20212;-65
2021/04/27 06:56:19;;;;;;;0.10;0.10;;;;;;;;;;5144304;27;20276;-66
2021/04/27 06:58:45;;;;;;;0.10;0.10;;;;;;;;;;5144943;27;20202;-65
2021/04/27 07:01:11;;;;;;;0.10;0.10;;;;;;;;;;5145160;27;20213;-66
2021/04/27 07:03:36;;;;;;;0.10;0.10;;;;;;;;;;5145179;27;20204;-67
2021/04/27 07:06:03;;;;;;;0.10;0.10;;;;;;;;;;5145133;27;20267;-67
2021/04/27 07:08:30;;;;;;;0.10;0.10;;;;;;;;;;5144821;27;20256;-65
2021/04/27 07:10:57;;;;;;;0.10;0.10;;;;;;;;;;5142822;27;20213;-67
2021/04/27 07:13:23;;;;;;;0.10;0.10;;;;;;;;;;5145515;27;20416;-66
2021/04/27 07:15:49;;;;;;;0.10;0.10;;;;;;;;;;5144985;27;20223;-67
2021/04/27 07:18:15;;;;;;;0.10;0.10;;;;;;;;;;5145936;27;20202;-66
2021/04/27 07:20:40;;;;;;;0.08;0.08;;;;;;;;;;5145136;27;20215;-66
2021/04/27 07:23:06;;;;;;;0.10;0.10;;;;;;;;;;5145690;27;20548;-67
2021/04/27 07:25:33;;;;;;;0.00;0.00;;;;;;;;;;5143999;27;20198;-67
2021/04/27 07:27:59;;;;;;;0.00;0.00;;;;;;;;;;5145485;27;20297;-67
2021/04/27 07:30:25;;;;;;;0.08;0.08;;;;;;;;;;5143657;27;20217;-66
2021/04/27 07:32:52;;;;;;;0.00;0.00;;;;;;;;;;5140314;27;20212;-66
2021/04/27 07:35:18;;;;;;;0.10;0.10;;;;;;;;;;5144660;27;20232;-67
2021/04/27 07:37:44;;;;;;;0.00;0.00;;;;;;;;;;5138810;27;20231;-67
2021/04/27 07:40:11;;;;;;;0.07;0.07;;;;;;;;;;5142492;27;20224;-67
2021/04/27 07:42:37;;;;;;;0.10;0.10;;;;;;;;;;5145419;27;20251;-67
2021/04/27 07:45:04;;;;;;;0.10;0.10;;;;;;;;;;5142427;27;20206;-66
2021/04/27 07:47:30;;;;;;;0.10;0.10;;;;;;;;;;5142867;27;20435;-67
2021/04/27 07:49:56;;;;;;;0.10;0.10;;;;;;;;;;5144340;27;20212;-67
2021/04/27 07:52:23;;;;;;;0.10;0.10;;;;;;;;;;5143147;27;20209;-67
2021/04/27 07:54:49;;;;;;;0.10;0.10;;;;;;;;;;5144587;27;20201;-67
2021/04/27 07:57:15;;;;;;;0.10;0.10;;;;;;;;;;5144223;27;20387;-67
2021/04/27 07:59:42;;;;;;;0.10;0.10;;;;;;;;;;5143101;27;20392;-67
2021/04/27 08:02:08;;;;;;;0.10;0.10;;;;;;;;;;5141778;27;20240;-68
2021/04/27 08:04:35;;;;;;;0.10;0.10;;;;;;;;;;5142338;27;20531;-69
2021/04/27 08:07:01;;;;;;;0.10;0.10;;;;;;;;;;5144103;27;20482;-67
2021/04/27 08:09:27;;;;;;;0.10;0.10;;;;;;;;;;5143682;27;20210;-68
2021/04/27 08:11:54;;;;;;;0.10;0.10;;;;;;;;;;5144452;27;20510;-68
2021/04/27 08:14:20;;;;;;;0.10;0.10;;;;;;;;;;5143984;27;20222;-68
2021/04/27 08:16:47;;;;;;;0.10;0.10;;;;;;;;;;5143807;27;20294;-70
2021/04/27 08:19:14;;;;;;;0.10;0.10;;;;;;;;;;5142550;27;20251;-68
2021/04/27 08:21:40;;;;;;;0.20;0.20;;;;;;;;;;5141246;27;20211;-69
2021/04/27 08:24:07;;;;;;;0.10;0.10;;;;;;;;;;5141263;27;20231;-69
2021/04/27 08:26:33;;;;;;;0.17;0.17;;;;;;;;;;5125808;28;20249;-67
2021/04/27 08:29:00;;;;;;;0.10;0.10;;;;;;;;;;5131586;27;20496;-69
2021/04/27 08:31:26;;;;;;;0.10;0.10;;;;;;;;;;5145047;27;20208;-69
2021/04/27 08:33:53;;;;;;;0.33;0.33;;;;;;;;;;5145050;27;20199;-67
2021/04/27 08:36:19;;;;;;;0.10;0.10;;;;;;;;;;5143651;27;20238;-68
2021/04/27 08:38:45;;;;;;;0.10;0.10;;;;;;;;;;5143483;27;20432;-70
2021/04/27 08:41:11;;;;;;;0.10;0.10;;;;;;;;;;5140804;27;20504;-72
2021/04/27 08:43:37;;;;;;;0.20;0.20;;;;;;;;;;5135991;27;20226;-70
2021/04/27 08:46:04;;;;;;;0.10;0.10;;;;;;;;;;5128868;28;20240;-69
2021/04/27 08:48:30;;;;;;;0.10;0.10;;;;;;;;;;5132076;27;20306;-69
2021/04/27 08:50:57;;;;;;;0.10;0.10;;;;;;;;;;5138288;27;20215;-69
2021/04/27 08:53:22;;;;;;;0.10;0.10;;;;;;;;;;5136215;27;20203;-69
2021/04/27 08:55:48;;;;;;;0.27;0.27;;;;;;;;;;5134606;27;20419;-67
2021/04/27 08:58:15;;;;;;;0.10;0.10;;;;;;;;;;5124319;28;20214;-66
2021/04/27 09:00:42;;;;;;;0.10;0.10;;;;;;;;;;5143671;27;20194;-70
2021/04/27 09:03:09;;;;;;;0.10;0.10;;;;;;;;;;5140365;27;20394;-70
2021/04/27 09:05:35;;;;;;;0.10;0.10;;;;;;;;;;5138841;27;20183;-70
2021/04/27 09:08:03;;;;;;;0.10;0.10;;;;;;;;;;5142236;27;20194;-72
2021/04/27 09:10:31;;;;;;;0.10;0.10;;;;;;;;;;5143325;28;20230;-69
2021/04/27 09:12:58;;;;;;;0.10;0.10;;;;;;;;;;5141734;28;20221;-68
2021/04/27 09:15:25;;;;;;;0.30;0.30;;;;;;;;;;5128041;27;20224;-69
2021/04/27 09:17:51;;;;;;;0.10;0.10;;;;;;;;;;5152940;27;20202;-68
2021/04/27 09:20:17;;;;;;;0.10;0.10;;;;;;;;;;5138716;28;20204;-68
2021/04/27 09:22:43;;;;;;;0.10;0.10;;;;;;;;;;5137964;27;20220;-68
2021/04/27 09:25:11;;;;;;;0.10;0.10;;;;;;;;;;5144572;28;20424;-68
2021/04/27 09:27:39;;;;;;;0.10;0.10;;;;;;;;;;5144613;28;20333;-69
2021/04/27 09:30:12;;;;;;;0.10;0.10;;;;;;;;;;5132745;27;20198;-69
2021/04/27 09:32:40;;;;;;;0.10;0.10;;;;;;;;;;5143776;28;20250;-69
2021/04/27 09:35:26;;;;;;;0.10;0.10;;;;;;;;;;5144640;28;20224;-68
2021/04/27 09:38:05;;;;;;;0.10;0.10;;;;;;;;;;5134177;27;20198;-68
2021/04/27 09:40:32;;;;;;;0.10;0.10;;;;;;;;;;5139847;28;20250;-69
2021/04/27 09:43:02;;;;;;;0.10;0.10;;;;;;;;;;5122965;27;20213;-69
2021/04/27 09:45:38;;;;;;;0.10;0.10;;;;;;;;;;5126795;27;20224;-68
2021/04/27 09:48:04;;;;;;;0.00;0.00;;;;;;;;;;5141466;28;20206;-69
2021/04/27 09:50:30;;;;;;;0.10;0.10;;;;;;;;;;5130140;28;20206;-67
2021/04/27 09:52:55;;;;;;;0.10;0.10;;;;;;;;;;5142676;28;20203;-68
2021/04/27 09:55:21;;;;;;;0.10;0.10;;;;;;;;;;5131832;28;20228;-68
2021/04/27 09:57:49;;;;;;;0.10;0.10;;;;;;;;;;5133741;27;20215;-68
2021/04/27 10:00:19;;;;;;;0.10;0.10;;;;;;;;;;5153555;27;20224;-68
2021/04/27 10:02:46;;;;;;;0.10;0.10;;;;;;;;;;5142334;28;20220;-67
2021/04/27 10:05:12;;;;;;;0.10;0.10;;;;;;;;;;5143645;28;20461;-68
2021/04/27 10:07:39;;;;;;;0.10;0.10;;;;;;;;;;5140399;28;20205;-66
2021/04/27 10:10:06;;;;;;;0.93;0.93;;;;;;;;;;5144269;28;20480;-68
2021/04/27 10:12:32;;;;;;;0.10;0.10;;;;;;;;;;5144117;27;20273;-68
2021/04/27 10:15:00;;;;;;;0.10;0.10;;;;;;;;;;5144597;27;20501;-69
2021/04/27 10:17:26;;;;;;;0.07;0.07;;;;;;;;;;5145260;27;20269;-69
2021/04/27 10:19:52;;;;;;;0.07;0.07;;;;;;;;;;5136340;27;20393;-69
2021/04/27 10:22:18;;;;;;;0.10;0.10;;;;;;;;;;5142061;27;20228;-69
2021/04/27 10:24:44;;;;;;;0.10;0.10;;;;;;;;;;5142139;27;20276;-68
2021/04/27 10:27:10;;;;;;;0.08;0.08;;;;;;;;;;5138595;27;20499;-69
2021/04/27 10:29:36;;;;;;;0.10;0.10;;;;;;;;;;5136352;27;20198;-68
2021/04/27 10:32:16;;;;;;;0.10;0.10;;;;;;;;;;5144924;27;20210;-72
2021/04/27 10:35:04;;;;;;;0.10;0.10;;;;;;;;;;5143586;27;20377;-67
2021/04/27 10:37:32;;;;;;;0.00;0.00;;;;;;;;;;5144980;27;20199;-68
2021/04/27 10:39:58;;;;;;;0.05;0.05;;;;;;;;;;5146829;27;20206;-68
2021/04/27 10:42:25;;;;;;;0.00;0.00;;;;;;;;;;5137218;27;20495;-70
2021/04/27 10:44:51;;;;;;;0.00;0.00;;;;;;;;;;5144861;27;20214;-68
2021/04/27 10:47:19;;;;;;;0.10;0.10;;;;;;;;;;5141693;27;20205;-68
2021/04/27 10:49:45;;;;;;;0.10;0.10;;;;;;;;;;5145562;27;20216;-68
2021/04/27 10:52:28;;;;;;;0.00;0.00;;;;;;;;;;5143688;27;20203;-67
2021/04/27 10:55:13;;;;;;;0.00;0.00;;;;;;;;;;5142772;27;20370;-69
2021/04/27 10:57:44;;;;;;;0.00;0.00;;;;;;;;;;5146141;27;20249;-66
2021/04/27 11:00:11;;;;;;;0.00;0.00;;;;;;;;;;5143622;27;20208;-68
2021/04/27 11:02:38;;;;;;;0.03;0.03;;;;;;;;;;5133424;27;20205;-68
2021/04/27 11:05:22;;;;;;;0.10;0.10;;;;;;;;;;5139809;27;20234;-68
2021/04/27 11:07:48;;;;;;;0.00;0.00;;;;;;;;;;5140477;27;20209;-67
2021/04/27 11:10:23;;;;;;;0.00;0.00;;;;;;;;;;5140265;27;20392;-71
2021/04/27 11:13:10;;;;;;;0.00;0.00;;;;;;;;;;5143332;27;20195;-72
2021/04/27 11:15:37;;;;;;;0.00;0.00;;;;;;;;;;5139273;27;20226;-71
2021/04/27 11:18:08;;;;;;;0.00;0.00;;;;;;;;;;5149882;27;20206;-71
2021/04/27 11:20:44;;;;;;;1.40;1.40;;;;;;;;;;5151460;27;20197;-71
2021/04/27 11:23:31;;;;;;;0.00;0.00;;;;;;;;;;5133956;27;20237;-70
2021/04/27 11:25:56;;;;;;;0.00;0.00;;;;;;;;;;5134241;27;20240;-71
2021/04/27 11:28:50;;;;;;;0.00;0.00;;;;;;;;;;5145069;27;20357;-70
2021/04/27 11:31:16;;;;;;;0.00;0.00;;;;;;;;;;5140437;27;20523;-69
2021/04/27 11:33:42;;;;;;;0.00;0.00;;;;;;;;;;5138231;27;20216;-72
2021/04/27 11:36:08;;;;;;;0.00;0.00;;;;;;;;;;5143811;27;20229;-70
2021/04/27 11:38:34;;;;;;;0.00;0.00;;;;;;;;;;5138356;27;20202;-72
2021/04/27 11:41:00;;;;;;;0.00;0.00;;;;;;;;;;5142687;27;20201;-70
2021/04/27 11:43:26;;;;;;;0.00;0.00;;;;;;;;;;5141803;27;20363;-71
2021/04/27 11:45:52;;;;;;;0.00;0.00;;;;;;;;;;5137065;27;20202;-69
2021/04/27 11:48:19;;;;;;;0.00;0.00;;;;;;;;;;5134550;27;20297;-71
2021/04/27 11:50:46;;;;;;;0.00;0.00;;;;;;;;;;5145295;27;20258;-71
2021/04/27 11:53:12;;;;;;;0.00;0.00;;;;;;;;;;5143181;27;20506;-72
2021/04/27 11:55:39;;;;;;;0.28;0.28;;;;;;;;;;5139104;27;20217;-71
2021/04/27 11:58:07;;;;;;;0.00;0.00;;;;;;;;;;5140215;27;20270;-71
2021/04/27 12:00:36;;;;;;;0.00;0.00;;;;;;;;;;5137186;27;20239;-70
2021/04/27 12:03:15;;;;;;;0.00;0.00;;;;;;;;;;5138910;27;20428;-69
2021/04/27 12:05:41;;;;;;;0.00;0.00;;;;;;;;;;5134619;27;20200;-69
2021/04/27 12:08:15;;;;;;;0.00;0.00;;;;;;;;;;5142761;27;20208;-68
2021/04/27 12:10:41;;;;;;;0.00;0.00;;;;;;;;;;5143961;27;20206;-70
2021/04/27 12:13:16;;;;;;;0.10;0.10;;;;;;;;;;5143178;27;20209;-68
2021/04/27 12:15:42;;;;;;;0.00;0.00;;;;;;;;;;5132680;27;20231;-70
2021/04/27 12:18:08;;;;;;;0.00;0.00;;;;;;;;;;5145149;27;20207;-69
2021/04/27 12:20:34;;;;;;;0.00;0.00;;;;;;;;;;5142033;27;20197;-69
2021/04/27 12:23:04;;;;;;;0.00;0.00;;;;;;;;;;5141251;27;20225;-69
2021/04/27 12:25:31;;;;;;;0.10;0.10;;;;;;;;;;5130932;27;20202;-69
2021/04/27 12:28:01;;;;;;;0.00;0.00;;;;;;;;;;5132980;27;20205;-70
2021/04/27 12:30:27;;;;;;;0.10;0.10;;;;;;;;;;5140155;27;20441;-70
2021/04/27 12:32:59;;;;;;;0.00;0.00;;;;;;;;;;5133027;27;20549;-69
2021/04/27 12:35:26;;;;;;;1.38;1.20;;;;;;;;;;5139915;27;20257;-70
2021/04/27 12:37:56;;;;;;;0.00;0.00;;;;;;;;;;5142330;27;20205;-69
2021/04/27 12:40:23;;;;;;;0.00;0.00;;;;;;;;;;5132291;27;20570;-69
2021/04/27 12:42:51;;;;;;;0.00;0.00;;;;;;;;;;5132830;27;20203;-67
2021/04/27 12:45:17;;;;;;;0.00;0.00;;;;;;;;;;5138322;27;20220;-71
2021/04/27 12:47:44;;;;;;;0.00;0.00;;;;;;;;;;5149391;27;20222;-70
2021/04/27 12:50:12;;;;;;;0.10;0.10;;;;;;;;;;5131118;27;20215;-70
2021/04/27 12:52:40;;;;;;;0.10;0.10;;;;;;;;;;5138833;27;20214;-70
2021/04/27 12:55:07;;;;;;;0.00;0.00;;;;;;;;;;5134473;27;20206;-69
2021/04/27 12:57:33;;;;;;;0.10;0.10;;;;;;;;;;5143463;28;20278;-69
2021/04/27 13:00:05;;;;;;;0.00;0.00;;;;;;;;;;5130916;28;20269;-70
2021/04/27 13:02:31;;;;;;;0.00;0.00;;;;;;;;;;5132701;28;20240;-72
2021/04/27 13:04:58;;;;;;;0.08;0.08;;;;;;;;;;5143176;28;20198;-69
2021/04/27 13:07:29;;;;;;;0.00;0.00;;;;;;;;;;5139551;27;20193;-70
2021/04/27 13:09:55;;;;;;;0.03;0.03;;;;;;;;;;5143286;28;20298;-70
2021/04/27 13:12:21;;;;;;;0.00;0.00;;;;;;;;;;5135834;27;20225;-72
2021/04/27 13:14:49;;;;;;;0.10;0.10;;;;;;;;;;5129532;27;20205;-67
2021/04/27 13:17:26;;;;;;;0.10;0.10;;;;;;;;;;5138688;28;20260;-67
2021/04/27 13:19:53;;;;;;;0.10;0.10;;;;;;;;;;5127236;28;20336;-68
2021/04/27 13:22:21;;;;;;;0.10;0.10;;;;;;;;;;5132208;28;20227;-70
2021/04/27 13:24:47;;;;;;;0.03;0.03;;;;;;;;;;5136259;28;20200;-68
2021/04/27 13:27:15;;;;;;;0.10;0.10;;;;;;;;;;5136955;27;20203;-69
2021/04/27 13:29:42;;;;;;;0.10;0.10;;;;;;;;;;5136621;27;20460;-69
2021/04/27 13:32:12;;;;;;;0.10;0.10;;;;;;;;;;5129189;28;20242;-68
2021/04/27 13:34:39;;;;;;;0.20;0.20;;;;;;;;;;5138384;28;20207;-68
2021/04/27 13:37:05;;;;;;;0.10;0.10;;;;;;;;;;5138974;28;20262;-67
2021/04/27 13:39:31;;;;;;;0.10;0.10;;;;;;;;;;5136274;28;20204;-68
2021/04/27 13:41:57;;;;;;;0.00;0.00;;;;;;;;;;5139281;28;20220;-67
2021/04/27 13:44:23;;;;;;;0.10;0.10;;;;;;;;;;5142516;28;20198;-71
2021/04/27 13:46:48;;;;;;;0.10;0.10;;;;;;;;;;5143238;27;20243;-73
2021/04/27 13:49:14;;;;;;;0.10;0.10;;;;;;;;;;5142272;27;20215;-73
2021/04/27 13:51:41;;;;;;;0.10;0.10;;;;;;;;;;5146065;27;20304;-72
2021/04/27 13:54:07;;;;;;;3.60;3.40;;;;;;;;;;5141271;27;20420;-74
2021/04/27 13:56:33;;;;;;;0.10;0.10;;;;;;;;;;5146995;27;20230;-76
2021/04/27 13:58:59;;;;;;;0.10;0.10;;;;;;;;;;5148442;27;20200;-71
2021/04/27 14:01:25;;;;;;;0.10;0.10;;;;;;;;;;5133621;27;20267;-71
2021/04/27 14:03:51;;;;;;;0.10;0.10;;;;;;;;;;5136672;27;20389;-71
2021/04/27 14:06:17;;;;;;;0.00;0.00;;;;;;;;;;5139112;27;20361;-70
2021/04/27 14:08:44;;;;;;;0.10;0.10;;;;;;;;;;5136635;27;20198;-70
2021/04/27 14:11:09;;;;;;;0.10;0.10;;;;;;;;;;5141977;27;20205;-68
2021/04/27 14:13:35;;;;;;;0.10;0.10;;;;;;;;;;5141290;27;20206;-69
2021/04/27 14:16:01;;;;;;;0.10;0.10;;;;;;;;;;5139087;27;20222;-68
2021/04/27 14:18:27;;;;;;;0.10;0.10;;;;;;;;;;5134761;27;20203;-69
2021/04/27 14:20:53;;;;;;;0.10;0.10;;;;;;;;;;5134338;27;20240;-69
2021/04/27 14:23:19;;;;;;;0.00;0.00;;;;;;;;;;5130984;27;20221;-71
2021/04/27 14:25:46;;;;;;;0.10;0.10;;;;;;;;;;5146273;27;20194;-68
2021/04/27 14:28:14;;;;;;;0.10;0.10;;;;;;;;;;5143454;27;20203;-72
2021/04/27 14:30:40;;;;;;;0.10;0.10;;;;;;;;;;5141174;27;20201;-73
2021/04/27 14:33:06;;;;;;;0.10;0.10;;;;;;;;;;5142580;27;20201;-72
2021/04/27 14:35:33;;;;;;;0.10;0.10;;;;;;;;;;5142629;27;20198;-71
2021/04/27 14:37:59;;;;;;;0.10;0.10;;;;;;;;;;5148849;27;20205;-69
2021/04/27 14:40:27;;;;;;;0.10;0.10;;;;;;;;;;5136524;27;20206;-67
2021/04/27 14:42:53;;;;;;;0.00;0.00;;;;;;;;;;5137339;27;20237;-68